Lamb, Illinois
Current Conditions -  °F | °C
As of 12:15 PM on Friday 28 Nov 2014 (Local Time) from K5M9 Reporting Station
Clear Clear  
Wind Chill:   Ceiling: Unl
Heat Index:   Visibility: 10mi
Dew Point: -1°   Wind: 9mph
Humidity: 60%   Direction: 180°S
Pressure: 30.24"   Gusts: 16mph
Location:  37.5407°N, 88.2414°W
Report Text: K5M9 281815Z AUTO 18008G14KT 10SM CLR 06/M01 A3024 RMK AO2 T00611011
Loading
Personal Weather Stations






























Interactive Weather Map New forecast layout! Learn more

10-Day Weather Forecast

Advertisements
Track Severe Weather on mobile